Weather at Long Lellang Airport

Public forecast

Using degrees Celsius for public forecast. Weather courtesy of forecast.io.

Closest aviation weather report (METAR) to Long Lellang Airport

Closest report is Miri Airport, 88.4 nm (163.7 km) NW. Retrieved 2021/10/22 08:00 UTC (1 hour ago):

WBGR 220800Z 26004KT 190V330 9999 SCT016 30/24 Q1010

Closest aviation forecast (TAF) to Long Lellang Airport

Closest forecast is Miri Airport, 88.4 nm (163.7 km) NW. Retrieved 2021/10/22 06:00 UTC (3 hours ago):

TAF WBGR 220500Z 2206/2306 34007KT 9999 SCT016 TEMPO 2206/2209 3000 TSRA FEW015CB TEMPO 2214/2217 3000 TSRA FEW015CB